Time;durP1;ratioP1;P1;durP2;ratioP2;P2;SDS_P1;SDS_P2;PMS_P1;PMS_P2;Temp;Humidity;BMP_temperature;BMP_pressure;BME280_temperature;BME280_humidity;BME280_pressure;Samples;Min_cycle;Max_cycle;Signal;HPM_P1;HPM_P2
2023/03/02 00:00:53;;;;;;;;;;;;;;;;;;5056230;28;20317;-79
2023/03/02 00:03:19;;;;;;;;;;;;;;;;;;5071707;28;19913;-78
2023/03/02 00:05:48;;;;;;;;;;;;;;;;;;5038652;28;19913;-78
2023/03/02 00:08:14;;;;;;;;;;;;;;;;;;5054773;28;19930;-78
2023/03/02 00:10:40;;;;;;;;;;;;;;;;;;5073807;28;20320;-78
2023/03/02 00:13:06;;;;;;;;;;;;;;;;;;5074262;28;19912;-77
2023/03/02 00:15:32;;;;;;;;;;;;;;;;;;5074079;28;19970;-78
2023/03/02 00:17:58;;;;;;;;;;;;;;;;;;5075888;28;19956;-77
2023/03/02 00:20:24;;;;;;;;;;;;;;;;;;5054953;28;19974;-78
2023/03/02 00:22:50;;;;;;;;;;;;;;;;;;5068696;28;19912;-78
2023/03/02 00:25:16;;;;;;;;;;;;;;;;;;5064371;28;19921;-78
2023/03/02 00:27:42;;;;;;;;;;;;;;;;;;5064730;28;20301;-77
2023/03/02 00:30:08;;;;;;;;;;;;;;;;;;5067598;28;19913;-78
2023/03/02 00:32:34;;;;;;;;;;;;;;;;;;5051055;28;19916;-77
2023/03/02 00:35:00;;;;;;;;;;;;;;;;;;5069147;28;19920;-78
2023/03/02 00:37:26;;;;;;;;;;;;;;;;;;5048915;28;19962;-79
2023/03/02 00:39:52;;;;;;;;;;;;;;;;;;5067344;28;20157;-78
2023/03/02 00:42:18;;;;;;;;;;;;;;;;;;5069463;28;19966;-78
2023/03/02 00:44:44;;;;;;;;;;;;;;;;;;5078020;28;19916;-78
2023/03/02 00:47:10;;;;;;;;;;;;;;;;;;5084342;28;19920;-78
2023/03/02 00:49:36;;;;;;;;;;;;;;;;;;5033990;28;19970;-79
2023/03/02 00:52:02;;;;;;;;;;;;;;;;;;5064793;28;20007;-79
2023/03/02 00:54:28;;;;;;;;;;;;;;;;;;5072126;28;19985;-79
2023/03/02 00:56:54;;;;;;;;;;;;;;;;;;5074200;28;19919;-78
2023/03/02 00:59:26;;;;;;;;;;;;;;;;;;5091755;28;19916;-78
2023/03/02 01:02:00;;;;;;;;;;;;;;;;;;5075925;28;19969;-77
2023/03/02 01:04:30;;;;;;;;;;;;;;;;;;5071934;28;20294;-78
2023/03/02 01:06:56;;;;;;;;;;;;;;;;;;5083386;28;19916;-78
2023/03/02 01:09:22;;;;;;;;;;;;;;;;;;5092438;28;19916;-79
2023/03/02 01:11:48;;;;;;;;;;;;;;;;;;5092439;28;20369;-78
2023/03/02 01:14:14;;;;;;;;;;;;;;;;;;5073410;28;19935;-78
2023/03/02 01:16:40;;;;;;;;;;;;;;;;;;5092571;28;19915;-78
2023/03/02 01:19:06;;;;;;;;;;;;;;;;;;5074019;28;19916;-78
2023/03/02 01:21:32;;;;;;;;;;;;;;;;;;5086670;28;19912;-77
2023/03/02 01:23:58;;;;;;;;;;;;;;;;;;5076593;28;19923;-78
2023/03/02 01:26:24;;;;;;;;;;;;;;;;;;5091605;28;20006;-77
2023/03/02 01:28:54;;;;;;;;;;;;;;;;;;5090473;28;19920;-77
2023/03/02 01:31:20;;;;;;;;;;;;;;;;;;5073660;28;19964;-78
2023/03/02 01:33:46;;;;;;;;;;;;;;;;;;5091143;28;19920;-78
2023/03/02 01:36:12;;;;;;;;;;;;;;;;;;5082335;28;19974;-78
2023/03/02 01:38:38;;;;;;;;;;;;;;;;;;5072741;28;19947;-78
2023/03/02 01:41:04;;;;;;;;;;;;;;;;;;5057632;28;19972;-78
2023/03/02 01:43:30;;;;;;;;;;;;;;;;;;5089718;28;19912;-78
2023/03/02 01:45:56;;;;;;;;;;;;;;;;;;5072728;28;19924;-78
2023/03/02 01:48:34;;;;;;;;;;;;;;;;;;5072104;28;19916;-78
2023/03/02 01:51:00;;;;;;;;;;;;;;;;;;5092113;28;20295;-78
2023/03/02 01:53:27;;;;;;;;;;;;;;;;;;5076454;28;20007;-78
2023/03/02 01:55:53;;;;;;;;;;;;;;;;;;5071275;28;19912;-78
2023/03/02 01:58:19;;;;;;;;;;;;;;;;;;5052656;28;19919;-78
2023/03/02 02:00:45;;;;;;;;;;;;;;;;;;5063563;28;20297;-79
2023/03/02 02:03:11;;;;;;;;;;;;;;;;;;5059903;28;19909;-79
2023/03/02 02:05:37;;;;;;;;;;;;;;;;;;5070396;28;19919;-78
2023/03/02 02:08:04;;;;;;;;;;;;;;;;;;5050757;28;19917;-79
2023/03/02 02:10:29;;;;;;;;;;;;;;;;;;5071652;28;19917;-79
2023/03/02 02:12:56;;;;;;;;;;;;;;;;;;5050237;28;19912;-78
2023/03/02 02:15:22;;;;;;;;;;;;;;;;;;5083257;28;19916;-79
2023/03/02 02:17:48;;;;;;;;;;;;;;;;;;5069263;28;20466;-79
2023/03/02 02:20:15;;;;;;;;;;;;;;;;;;5044892;28;20007;-78
2023/03/02 02:22:41;;;;;;;;;;;;;;;;;;5070358;28;19913;-78
2023/03/02 02:25:07;;;;;;;;;;;;;;;;;;5069653;28;20362;-78
2023/03/02 02:27:33;;;;;;;;;;;;;;;;;;5059182;28;19927;-78
2023/03/02 02:29:59;;;;;;;;;;;;;;;;;;5050019;28;19919;-79
2023/03/02 02:32:25;;;;;;;;;;;;;;;;;;5056738;28;19912;-78
2023/03/02 02:34:51;;;;;;;;;;;;;;;;;;5078472;28;20313;-79
2023/03/02 02:37:17;;;;;;;;;;;;;;;;;;5060624;28;19916;-78
2023/03/02 02:39:43;;;;;;;;;;;;;;;;;;5053408;28;19920;-78
2023/03/02 02:42:09;;;;;;;;;;;;;;;;;;5036589;28;19912;-77
2023/03/02 02:44:35;;;;;;;;;;;;;;;;;;5073139;28;20263;-79
2023/03/02 02:47:02;;;;;;;;;;;;;;;;;;5070778;28;19920;-79
2023/03/02 02:49:28;;;;;;;;;;;;;;;;;;5057678;28;19919;-77
2023/03/02 02:51:54;;;;;;;;;;;;;;;;;;5058908;28;19913;-79
2023/03/02 02:54:20;;;;;;;;;;;;;;;;;;5072002;28;20412;-79
2023/03/02 02:56:47;;;;;;;;;;;;;;;;;;5076023;28;19923;-79
2023/03/02 02:59:12;;;;;;;;;;;;;;;;;;5070157;28;19912;-79
2023/03/02 03:01:39;;;;;;;;;;;;;;;;;;5088962;28;20006;-79
2023/03/02 03:04:05;;;;;;;;;;;;;;;;;;5072542;28;20364;-79
2023/03/02 03:06:40;;;;;;;;;;;;;;;;;;5088588;28;20382;-78
2023/03/02 03:09:06;;;;;;;;;;;;;;;;;;5071244;28;19916;-79
2023/03/02 03:11:37;;;;;;;;;;;;;;;;;;5071397;28;20027;-77
2023/03/02 03:14:03;;;;;;;;;;;;;;;;;;5071211;28;19922;-78
2023/03/02 03:16:30;;;;;;;;;;;;;;;;;;5070634;28;19995;-79
2023/03/02 03:18:56;;;;;;;;;;;;;;;;;;5088998;28;20440;-78
2023/03/02 03:21:22;;;;;;;;;;;;;;;;;;5072487;28;20549;-78
2023/03/02 03:23:48;;;;;;;;;;;;;;;;;;5069174;28;20021;-78
2023/03/02 03:26:15;;;;;;;;;;;;;;;;;;5071110;28;19912;-79
2023/03/02 03:28:41;;;;;;;;;;;;;;;;;;5070583;28;19959;-79
2023/03/02 03:31:07;;;;;;;;;;;;;;;;;;5071738;28;19995;-78
2023/03/02 03:33:33;;;;;;;;;;;;;;;;;;5087240;28;20434;-78
2023/03/02 03:35:59;;;;;;;;;;;;;;;;;;5070915;28;20427;-78
2023/03/02 03:38:26;;;;;;;;;;;;;;;;;;5070637;28;19912;-79
2023/03/02 03:40:52;;;;;;;;;;;;;;;;;;5080550;28;20547;-79
2023/03/02 03:43:18;;;;;;;;;;;;;;;;;;5085973;28;19995;-79
2023/03/02 03:45:50;;;;;;;;;;;;;;;;;;5070681;28;20047;-79
2023/03/02 03:48:19;;;;;;;;;;;;;;;;;;5086863;28;19927;-79
2023/03/02 03:50:49;;;;;;;;;;;;;;;;;;5064807;28;20296;-79
2023/03/02 03:53:15;;;;;;;;;;;;;;;;;;5068074;28;19920;-79
2023/03/02 03:55:41;;;;;;;;;;;;;;;;;;5069099;28;20293;-79
2023/03/02 03:58:07;;;;;;;;;;;;;;;;;;5069363;28;20029;-79
2023/03/02 04:00:33;;;;;;;;;;;;;;;;;;5071508;28;19998;-79
2023/03/02 04:03:05;;;;;;;;;;;;;;;;;;5063311;28;19919;-78
2023/03/02 04:05:31;;;;;;;;;;;;;;;;;;5090328;28;20249;-78
2023/03/02 04:08:00;;;;;;;;;;;;;;;;;;5072330;28;20398;-79
2023/03/02 04:10:27;;;;;;;;;;;;;;;;;;5089622;28;20007;-79
2023/03/02 04:12:53;;;;;;;;;;;;;;;;;;5088722;28;19912;-79
2023/03/02 04:15:19;;;;;;;;;;;;;;;;;;5090395;28;19912;-79
2023/03/02 04:17:47;;;;;;;;;;;;;;;;;;5067375;28;19912;-79
2023/03/02 04:20:15;;;;;;;;;;;;;;;;;;5063873;28;20277;-79
2023/03/02 04:22:42;;;;;;;;;;;;;;;;;;5070912;28;19958;-79
2023/03/02 04:25:08;;;;;;;;;;;;;;;;;;5079002;28;19912;-79
2023/03/02 04:27:34;;;;;;;;;;;;;;;;;;5073174;28;19926;-79
2023/03/02 04:30:00;;;;;;;;;;;;;;;;;;5067155;28;19916;-79
2023/03/02 04:32:26;;;;;;;;;;;;;;;;;;5089324;28;20007;-79
2023/03/02 04:34:54;;;;;;;;;;;;;;;;;;5078264;28;19912;-78
2023/03/02 04:37:20;;;;;;;;;;;;;;;;;;5072101;28;19931;-79
2023/03/02 04:39:50;;;;;;;;;;;;;;;;;;5098361;28;19912;-78
2023/03/02 04:42:16;;;;;;;;;;;;;;;;;;5100450;28;19916;-79
2023/03/02 04:44:42;;;;;;;;;;;;;;;;;;5072761;28;19969;-79
2023/03/02 04:47:07;;;;;;;;;;;;;;;;;;5076300;28;19928;-78
2023/03/02 04:49:33;;;;;;;;;;;;;;;;;;5093475;28;19919;-79
2023/03/02 04:51:59;;;;;;;;;;;;;;;;;;5088702;28;19918;-79
2023/03/02 04:54:25;;;;;;;;;;;;;;;;;;5059978;28;19916;-78
2023/03/02 04:56:51;;;;;;;;;;;;;;;;;;5072623;28;20349;-79
2023/03/02 04:59:18;;;;;;;;;;;;;;;;;;5082787;28;20363;-79
2023/03/02 05:01:44;;;;;;;;;;;;;;;;;;5083399;28;20082;-79
2023/03/02 05:04:10;;;;;;;;;;;;;;;;;;5090573;28;19923;-79
2023/03/02 05:06:36;;;;;;;;;;;;;;;;;;5088242;28;19913;-79
2023/03/02 05:09:03;;;;;;;;;;;;;;;;;;5090821;28;20438;-79
2023/03/02 05:11:29;;;;;;;;;;;;;;;;;;5091086;28;19912;-79
2023/03/02 05:13:55;;;;;;;;;;;;;;;;;;5089055;28;19962;-79
2023/03/02 05:16:21;;;;;;;;;;;;;;;;;;5084506;28;19916;-79
2023/03/02 05:18:47;;;;;;;;;;;;;;;;;;5090091;28;19999;-79
2023/03/02 05:21:13;;;;;;;;;;;;;;;;;;5074736;28;20431;-79
2023/03/02 05:23:39;;;;;;;;;;;;;;;;;;5079631;28;19920;-79
2023/03/02 05:26:05;;;;;;;;;;;;;;;;;;5072272;28;20276;-79
2023/03/02 05:28:32;;;;;;;;;;;;;;;;;;5085272;28;19924;-79
2023/03/02 05:30:58;;;;;;;;;;;;;;;;;;5091544;28;19968;-79
2023/03/02 05:33:24;;;;;;;;;;;;;;;;;;5080444;28;19919;-78
2023/03/02 05:35:50;;;;;;;;;;;;;;;;;;5080796;28;19932;-78
2023/03/02 05:38:16;;;;;;;;;;;;;;;;;;5089330;28;20049;-78
2023/03/02 05:40:42;;;;;;;;;;;;;;;;;;5090159;28;19919;-78
2023/03/02 05:43:08;;;;;;;;;;;;;;;;;;5090112;28;19920;-78
2023/03/02 05:45:34;;;;;;;;;;;;;;;;;;5091915;28;19916;-78
2023/03/02 05:48:00;;;;;;;;;;;;;;;;;;5085293;28;20015;-78
2023/03/02 05:50:26;;;;;;;;;;;;;;;;;;5090142;28;20392;-79
2023/03/02 05:52:52;;;;;;;;;;;;;;;;;;5086163;28;20026;-79
2023/03/02 05:55:18;;;;;;;;;;;;;;;;;;5089610;28;19920;-78
2023/03/02 05:57:44;;;;;;;;;;;;;;;;;;5088869;28;19912;-79
2023/03/02 06:00:10;;;;;;;;;;;;;;;;;;5085485;28;20322;-79
2023/03/02 06:02:39;;;;;;;;;;;;;;;;;;5090882;28;19957;-78
2023/03/02 06:05:05;;;;;;;;;;;;;;;;;;5078142;28;19920;-78
2023/03/02 06:07:31;;;;;;;;;;;;;;;;;;5082499;28;20446;-77
2023/03/02 06:09:57;;;;;;;;;;;;;;;;;;5085672;28;19917;-79
2023/03/02 06:12:23;;;;;;;;;;;;;;;;;;5089524;28;20398;-78
2023/03/02 06:14:49;;;;;;;;;;;;;;;;;;5086598;28;19940;-77
2023/03/02 06:17:15;;;;;;;;;;;;;;;;;;5105812;28;20454;-78
2023/03/02 06:19:41;;;;;;;;;;;;;;;;;;5072551;28;19922;-78
2023/03/02 06:22:07;;;;;;;;;;;;;;;;;;5103204;28;19912;-78
2023/03/02 06:24:33;;;;;;;;;;;;;;;;;;5071101;28;19920;-78
2023/03/02 06:26:59;;;;;;;;;;;;;;;;;;5086888;28;19991;-78
2023/03/02 06:29:25;;;;;;;;;;;;;;;;;;5082956;28;19916;-78
2023/03/02 06:31:51;;;;;;;;;;;;;;;;;;5086344;28;20131;-79
2023/03/02 06:34:17;;;;;;;;;;;;;;;;;;5086803;28;19920;-79
2023/03/02 06:36:43;;;;;;;;;;;;;;;;;;5091705;28;19912;-78
2023/03/02 06:39:14;;;;;;;;;;;;;;;;;;5090115;28;19916;-78
2023/03/02 06:41:40;;;;;;;;;;;;;;;;;;5076941;28;19916;-79
2023/03/02 06:44:06;;;;;;;;;;;;;;;;;;5080951;28;19935;-79
2023/03/02 06:46:32;;;;;;;;;;;;;;;;;;5090234;28;19916;-79
2023/03/02 06:48:58;;;;;;;;;;;;;;;;;;5058751;28;20408;-79
2023/03/02 06:51:24;;;;;;;;;;;;;;;;;;5089818;28;19912;-79
2023/03/02 06:53:50;;;;;;;;;;;;;;;;;;5088676;28;19970;-79
2023/03/02 06:56:16;;;;;;;;;;;;;;;;;;5086236;28;20007;-79
2023/03/02 06:58:42;;;;;;;;;;;;;;;;;;5076347;28;19943;-79
2023/03/02 07:01:08;;;;;;;;;;;;;;;;;;5073733;28;19959;-79
2023/03/02 07:03:34;;;;;;;;;;;;;;;;;;5084241;28;19912;-78
2023/03/02 07:06:00;;;;;;;;;;;;;;;;;;5087461;28;19916;-78
2023/03/02 07:08:26;;;;;;;;;;;;;;;;;;5086868;28;20367;-78
2023/03/02 07:10:52;;;;;;;;;;;;;;;;;;5089333;28;19981;-78
2023/03/02 07:13:19;;;;;;;;;;;;;;;;;;5085611;28;19966;-78
2023/03/02 07:15:45;;;;;;;;;;;;;;;;;;5090170;28;19913;-78
2023/03/02 07:18:10;;;;;;;;;;;;;;;;;;5080731;28;19916;-78
2023/03/02 07:20:37;;;;;;;;;;;;;;;;;;5089414;28;19951;-78
2023/03/02 07:23:03;;;;;;;;;;;;;;;;;;5086632;28;19985;-78
2023/03/02 07:25:29;;;;;;;;;;;;;;;;;;5070027;28;19945;-78
2023/03/02 07:27:55;;;;;;;;;;;;;;;;;;5082419;28;19916;-79
2023/03/02 07:30:21;;;;;;;;;;;;;;;;;;5088521;28;20003;-79
2023/03/02 07:32:47;;;;;;;;;;;;;;;;;;5082731;28;20065;-78
2023/03/02 07:35:13;;;;;;;;;;;;;;;;;;5083537;28;19970;-79
2023/03/02 07:37:39;;;;;;;;;;;;;;;;;;5080088;28;20009;-78
2023/03/02 07:40:05;;;;;;;;;;;;;;;;;;5087449;28;19912;-79
2023/03/02 07:42:34;;;;;;;;;;;;;;;;;;5080392;28;19927;-78
2023/03/02 07:45:03;;;;;;;;;;;;;;;;;;5072299;28;19917;-80
2023/03/02 07:47:29;;;;;;;;;;;;;;;;;;5083905;28;19917;-79
2023/03/02 07:49:55;;;;;;;;;;;;;;;;;;5087913;28;19912;-79
2023/03/02 07:52:21;;;;;;;;;;;;;;;;;;5089424;28;19923;-78
2023/03/02 07:54:47;;;;;;;;;;;;;;;;;;5083731;28;19920;-79
2023/03/02 07:57:15;;;;;;;;;;;;;;;;;;5076201;28;19913;-80
2023/03/02 07:59:41;;;;;;;;;;;;;;;;;;5083583;28;19977;-79
2023/03/02 08:02:07;;;;;;;;;;;;;;;;;;5087570;28;19919;-79
2023/03/02 08:04:33;;;;;;;;;;;;;;;;;;5085530;28;20279;-80
2023/03/02 08:06:59;;;;;;;;;;;;;;;;;;5076882;28;19908;-79
2023/03/02 08:09:25;;;;;;;;;;;;;;;;;;5101225;28;19943;-78
2023/03/02 08:11:51;;;;;;;;;;;;;;;;;;5084719;28;20014;-78
2023/03/02 08:14:16;;;;;;;;;;;;;;;;;;5094238;28;19912;-79
2023/03/02 08:16:43;;;;;;;;;;;;;;;;;;5089009;28;19958;-80
2023/03/02 08:19:09;;;;;;;;;;;;;;;;;;5093909;28;19912;-82
2023/03/02 08:21:35;;;;;;;;;;;;;;;;;;5092072;28;19955;-79
2023/03/02 08:24:01;;;;;;;;;;;;;;;;;;5081405;28;19958;-78
2023/03/02 08:26:27;;;;;;;;;;;;;;;;;;5073486;28;19912;-78
2023/03/02 08:28:53;;;;;;;;;;;;;;;;;;5077871;28;20293;-78
2023/03/02 08:31:19;;;;;;;;;;;;;;;;;;5092728;28;19960;-78
2023/03/02 08:33:45;;;;;;;;;;;;;;;;;;5093285;28;20018;-78
2023/03/02 08:36:11;;;;;;;;;;;;;;;;;;5093851;28;20296;-78
2023/03/02 08:38:37;;;;;;;;;;;;;;;;;;5093716;28;20215;-80
2023/03/02 08:41:05;;;;;;;;;;;;;;;;;;5094208;28;20238;-78
2023/03/02 08:43:34;;;;;;;;;;;;;;;;;;5094000;28;19916;-79
2023/03/02 08:46:00;;;;;;;;;;;;;;;;;;5093281;28;20301;-79
2023/03/02 08:48:26;;;;;;;;;;;;;;;;;;5093404;28;20357;-78
2023/03/02 08:50:52;;;;;;;;;;;;;;;;;;5093281;28;20209;-78
2023/03/02 08:53:18;;;;;;;;;;;;;;;;;;5093365;28;20437;-78
2023/03/02 08:55:44;;;;;;;;;;;;;;;;;;5092623;28;20120;-78
2023/03/02 08:58:10;;;;;;;;;;;;;;;;;;5075246;28;19919;-78
2023/03/02 09:00:36;;;;;;;;;;;;;;;;;;5074664;28;19912;-79
2023/03/02 09:03:03;;;;;;;;;;;;;;;;;;5093192;28;19912;-79
2023/03/02 09:05:29;;;;;;;;;;;;;;;;;;5092877;28;19934;-79
2023/03/02 09:07:55;;;;;;;;;;;;;;;;;;5092694;28;20380;-79
2023/03/02 09:10:21;;;;;;;;;;;;;;;;;;5092916;28;19922;-79
2023/03/02 09:12:47;;;;;;;;;;;;;;;;;;5074419;28;20438;-78
2023/03/02 09:15:13;;;;;;;;;;;;;;;;;;5074469;28;19919;-79
2023/03/02 09:17:39;;;;;;;;;;;;;;;;;;5092558;28;19944;-79
2023/03/02 09:20:04;;;;;;;;;;;;;;;;;;5092949;28;19924;-78
2023/03/02 09:22:30;;;;;;;;;;;;;;;;;;5093163;28;20381;-79
2023/03/02 09:24:57;;;;;;;;;;;;;;;;;;5092056;28;20041;-79
2023/03/02 09:27:23;;;;;;;;;;;;;;;;;;5092381;28;20395;-79
2023/03/02 09:29:49;;;;;;;;;;;;;;;;;;5092404;28;19912;-78
2023/03/02 09:32:15;;;;;;;;;;;;;;;;;;5092871;28;19912;-78
2023/03/02 09:34:41;;;;;;;;;;;;;;;;;;5092807;28;20277;-78
2023/03/02 09:37:07;;;;;;;;;;;;;;;;;;5092702;28;19915;-78
2023/03/02 09:39:33;;;;;;;;;;;;;;;;;;5092924;28;19916;-78
2023/03/02 09:41:59;;;;;;;;;;;;;;;;;;5092809;28;20018;-78
2023/03/02 09:44:25;;;;;;;;;;;;;;;;;;5092541;28;19919;-79
2023/03/02 09:46:51;;;;;;;;;;;;;;;;;;5092561;28;19920;-78
2023/03/02 09:49:17;;;;;;;;;;;;;;;;;;5092786;28;19912;-78
2023/03/02 09:51:43;;;;;;;;;;;;;;;;;;5092518;28;20269;-78
2023/03/02 09:54:09;;;;;;;;;;;;;;;;;;5092323;28;19920;-78
2023/03/02 09:56:35;;;;;;;;;;;;;;;;;;5092094;28;20293;-79
2023/03/02 09:59:01;;;;;;;;;;;;;;;;;;5092502;28;19916;-78
2023/03/02 10:01:27;;;;;;;;;;;;;;;;;;5091866;28;19912;-78
2023/03/02 10:03:55;;;;;;;;;;;;;;;;;;5092474;28;19912;-78
2023/03/02 10:06:21;;;;;;;;;;;;;;;;;;5091861;28;20400;-79
2023/03/02 10:08:49;;;;;;;;;;;;;;;;;;5092243;28;20343;-78
2023/03/02 10:11:15;;;;;;;;;;;;;;;;;;5092369;28;20444;-78
2023/03/02 10:13:45;;;;;;;;;;;;;;;;;;5092001;28;20301;-78
2023/03/02 10:16:11;;;;;;;;;;;;;;;;;;5091573;28;19988;-78
2023/03/02 10:18:37;;;;;;;;;;;;;;;;;;5091487;28;19908;-78
2023/03/02 10:21:03;;;;;;;;;;;;;;;;;;5091831;28;19989;-77
2023/03/02 10:23:29;;;;;;;;;;;;;;;;;;5091532;28;20385;-78
2023/03/02 10:25:56;;;;;;;;;;;;;;;;;;5090910;28;19988;-78
2023/03/02 10:28:22;;;;;;;;;;;;;;;;;;5091142;28;20483;-78
2023/03/02 10:30:48;;;;;;;;;;;;;;;;;;5068489;28;19912;-78
2023/03/02 10:33:14;;;;;;;;;;;;;;;;;;5062990;28;19912;-78
2023/03/02 10:35:40;;;;;;;;;;;;;;;;;;5089879;28;19947;-78
2023/03/02 10:38:06;;;;;;;;;;;;;;;;;;5090391;28;19955;-77
2023/03/02 10:40:33;;;;;;;;;;;;;;;;;;5088458;28;20282;-78
2023/03/02 10:42:59;;;;;;;;;;;;;;;;;;5057190;28;20415;-78
2023/03/02 10:45:25;;;;;;;;;;;;;;;;;;5066003;28;19948;-78
2023/03/02 10:47:51;;;;;;;;;;;;;;;;;;5089540;28;19973;-78
2023/03/02 10:50:17;;;;;;;;;;;;;;;;;;5089882;28;20338;-78
2023/03/02 10:52:43;;;;;;;;;;;;;;;;;;5086868;28;19961;-78
2023/03/02 10:55:09;;;;;;;;;;;;;;;;;;5090455;28;20404;-78
2023/03/02 10:57:35;;;;;;;;;;;;;;;;;;5072058;28;19966;-78
2023/03/02 11:00:01;;;;;;;;;;;;;;;;;;5086232;28;19919;-78
2023/03/02 11:02:28;;;;;;;;;;;;;;;;;;5089158;28;19912;-78
2023/03/02 11:04:54;;;;;;;;;;;;;;;;;;5083201;28;19995;-78
2023/03/02 11:07:20;;;;;;;;;;;;;;;;;;5090686;28;19912;-79
2023/03/02 11:09:46;;;;;;;;;;;;;;;;;;5090928;28;19923;-78
2023/03/02 11:12:12;;;;;;;;;;;;;;;;;;5072148;28;19923;-78
2023/03/02 11:14:38;;;;;;;;;;;;;;;;;;5090146;28;19976;-79
2023/03/02 11:17:04;;;;;;;;;;;;;;;;;;5090121;28;19963;-79
2023/03/02 11:19:30;;;;;;;;;;;;;;;;;;5090460;28;19912;-80
2023/03/02 11:21:56;;;;;;;;;;;;;;;;;;5090666;28;19927;-80
2023/03/02 11:24:22;;;;;;;;;;;;;;;;;;5086376;28;19916;-80
2023/03/02 11:26:48;;;;;;;;;;;;;;;;;;5090718;28;19913;-80
2023/03/02 11:29:15;;;;;;;;;;;;;;;;;;5087367;28;19916;-80
2023/03/02 11:31:41;;;;;;;;;;;;;;;;;;5091076;28;19947;-80
2023/03/02 11:34:07;;;;;;;;;;;;;;;;;;5089734;28;19947;-80
2023/03/02 11:36:33;;;;;;;;;;;;;;;;;;5089870;28;20356;-80
2023/03/02 11:38:58;;;;;;;;;;;;;;;;;;5090899;28;19912;-80
2023/03/02 11:41:26;;;;;;;;;;;;;;;;;;5076694;28;19963;-80
2023/03/02 11:43:52;;;;;;;;;;;;;;;;;;5087204;28;20391;-79
2023/03/02 11:46:18;;;;;;;;;;;;;;;;;;5094004;28;19916;-79
2023/03/02 11:48:45;;;;;;;;;;;;;;;;;;5091299;28;20018;-79
2023/03/02 11:51:12;;;;;;;;;;;;;;;;;;5089614;28;19912;-80
2023/03/02 11:53:38;;;;;;;;;;;;;;;;;;5088119;28;20097;-78
2023/03/02 11:56:04;;;;;;;;;;;;;;;;;;5075118;28;19913;-79
2023/03/02 11:58:30;;;;;;;;;;;;;;;;;;5061670;28;19919;-80
2023/03/02 12:00:56;;;;;;;;;;;;;;;;;;5075601;28;20293;-79
2023/03/02 12:03:22;;;;;;;;;;;;;;;;;;5090889;28;19969;-79
2023/03/02 12:05:48;;;;;;;;;;;;;;;;;;5092886;28;20226;-79
2023/03/02 12:08:14;;;;;;;;;;;;;;;;;;5091138;28;20012;-79
2023/03/02 12:10:40;;;;;;;;;;;;;;;;;;5092428;28;19916;-79
2023/03/02 12:13:06;;;;;;;;;;;;;;;;;;5052403;28;20093;-79
2023/03/02 12:15:32;;;;;;;;;;;;;;;;;;5082555;28;19916;-79
2023/03/02 12:17:58;;;;;;;;;;;;;;;;;;5083745;28;19912;-79
2023/03/02 12:20:25;;;;;;;;;;;;;;;;;;5075504;28;19965;-80
2023/03/02 12:22:51;;;;;;;;;;;;;;;;;;5092316;28;19923;-79
2023/03/02 12:25:17;;;;;;;;;;;;;;;;;;5092604;28;19908;-80
2023/03/02 12:27:43;;;;;;;;;;;;;;;;;;5088202;28;19974;-78
2023/03/02 12:30:09;;;;;;;;;;;;;;;;;;5094216;28;20407;-77
2023/03/02 12:32:35;;;;;;;;;;;;;;;;;;5089808;28;19919;-88
2023/03/02 12:35:01;;;;;;;;;;;;;;;;;;5089774;28;19912;-80
2023/03/02 12:37:27;;;;;;;;;;;;;;;;;;5091838;28;19920;-80
2023/03/02 12:39:53;;;;;;;;;;;;;;;;;;5093192;28;19961;-79
2023/03/02 12:42:19;;;;;;;;;;;;;;;;;;5092793;28;20003;-82
2023/03/02 12:44:46;;;;;;;;;;;;;;;;;;5094199;28;20150;-83
2023/03/02 12:47:12;;;;;;;;;;;;;;;;;;5075219;28;20288;-82
2023/03/02 12:49:38;;;;;;;;;;;;;;;;;;5074694;28;19912;-82
2023/03/02 12:52:04;;;;;;;;;;;;;;;;;;5089457;28;20348;-80
2023/03/02 12:54:30;;;;;;;;;;;;;;;;;;5075482;28;19973;-81
2023/03/02 12:56:56;;;;;;;;;;;;;;;;;;5083513;28;19916;-81
2023/03/02 12:59:22;;;;;;;;;;;;;;;;;;5087192;28;19923;-82
2023/03/02 13:01:48;;;;;;;;;;;;;;;;;;5091360;28;19931;-83
2023/03/02 13:04:14;;;;;;;;;;;;;;;;;;5057967;28;19964;-83
2023/03/02 13:06:40;;;;;;;;;;;;;;;;;;5073809;28;19916;-83
2023/03/02 13:09:06;;;;;;;;;;;;;;;;;;5053594;28;19939;-79
2023/03/02 13:11:32;;;;;;;;;;;;;;;;;;5068879;28;19916;-81
2023/03/02 13:13:58;;;;;;;;;;;;;;;;;;5071855;28;19912;-81
2023/03/02 13:16:24;;;;;;;;;;;;;;;;;;5079290;28;20300;-81
2023/03/02 13:18:54;;;;;;;;;;;;;;;;;;5081564;28;19917;-80
2023/03/02 13:21:20;;;;;;;;;;;;;;;;;;5082674;28;19916;-80
2023/03/02 13:23:46;;;;;;;;;;;;;;;;;;5080674;28;20419;-80
2023/03/02 13:26:12;;;;;;;;;;;;;;;;;;5088401;28;19928;-81
2023/03/02 13:28:38;;;;;;;;;;;;;;;;;;5085908;28;19930;-81
2023/03/02 13:31:04;;;;;;;;;;;;;;;;;;5078854;28;19937;-81
2023/03/02 13:33:30;;;;;;;;;;;;;;;;;;5070554;28;19948;-80
2023/03/02 13:35:56;;;;;;;;;;;;;;;;;;5084346;28;19919;-81
2023/03/02 13:38:22;;;;;;;;;;;;;;;;;;5092293;28;19916;-80
2023/03/02 13:40:48;;;;;;;;;;;;;;;;;;5090214;28;19912;-80
2023/03/02 13:43:14;;;;;;;;;;;;;;;;;;5084024;28;20019;-80
2023/03/02 13:45:40;;;;;;;;;;;;;;;;;;5046980;28;20441;-81
2023/03/02 13:48:06;;;;;;;;;;;;;;;;;;5087563;28;20060;-82
2023/03/02 13:50:32;;;;;;;;;;;;;;;;;;5090165;28;19912;-83
2023/03/02 13:52:58;;;;;;;;;;;;;;;;;;5064853;28;19920;-84
2023/03/02 13:55:24;;;;;;;;;;;;;;;;;;5063907;28;19913;-83
2023/03/02 13:57:50;;;;;;;;;;;;;;;;;;5039268;28;19912;-81
2023/03/02 14:00:16;;;;;;;;;;;;;;;;;;5064709;28;20297;-82
2023/03/02 14:02:42;;;;;;;;;;;;;;;;;;5063388;28;19982;-81
2023/03/02 14:05:08;;;;;;;;;;;;;;;;;;5072408;28;19912;-82
2023/03/02 14:07:34;;;;;;;;;;;;;;;;;;5065391;28;19964;-81
2023/03/02 14:10:00;;;;;;;;;;;;;;;;;;5067241;28;20386;-83
2023/03/02 14:12:26;;;;;;;;;;;;;;;;;;5065382;28;20010;-83
2023/03/02 14:14:52;;;;;;;;;;;;;;;;;;5058765;28;19917;-84
2023/03/02 14:17:18;;;;;;;;;;;;;;;;;;5053075;28;19943;-83
2023/03/02 14:19:51;;;;;;;;;;;;;;;;;;5052204;28;19916;-83
2023/03/02 14:22:17;;;;;;;;;;;;;;;;;;5069564;28;19923;-82
2023/03/02 14:24:43;;;;;;;;;;;;;;;;;;5071298;28;19913;-83
2023/03/02 14:27:09;;;;;;;;;;;;;;;;;;5067958;28;19963;-83
2023/03/02 14:29:36;;;;;;;;;;;;;;;;;;5059436;28;20435;-82
2023/03/02 14:32:03;;;;;;;;;;;;;;;;;;5069028;28;19913;-82
2023/03/02 14:34:29;;;;;;;;;;;;;;;;;;5062578;28;19920;-83
2023/03/02 14:36:55;;;;;;;;;;;;;;;;;;5054023;28;19921;-83
2023/03/02 14:39:21;;;;;;;;;;;;;;;;;;5047215;28;20281;-83
2023/03/02 14:41:47;;;;;;;;;;;;;;;;;;5068218;28;19912;-82
2023/03/02 14:44:13;;;;;;;;;;;;;;;;;;5062902;28;19968;-82
2023/03/02 14:46:39;;;;;;;;;;;;;;;;;;5034125;28;19917;-82
2023/03/02 14:49:06;;;;;;;;;;;;;;;;;;5065507;28;20102;-83
2023/03/02 14:51:32;;;;;;;;;;;;;;;;;;5071293;28;19912;-82
2023/03/02 14:54:00;;;;;;;;;;;;;;;;;;5060845;28;20781;-82
2023/03/02 14:56:26;;;;;;;;;;;;;;;;;;5062803;28;19923;-82
2023/03/02 14:58:53;;;;;;;;;;;;;;;;;;5064681;28;20448;-83
2023/03/02 15:01:19;;;;;;;;;;;;;;;;;;5062438;28;19912;-80
2023/03/02 15:03:45;;;;;;;;;;;;;;;;;;5054103;28;19970;-82
2023/03/02 15:06:11;;;;;;;;;;;;;;;;;;5062982;28;19920;-83
2023/03/02 15:08:37;;;;;;;;;;;;;;;;;;5064988;28;19984;-84
2023/03/02 15:11:03;;;;;;;;;;;;;;;;;;5069981;28;19958;-84
2023/03/02 15:13:29;;;;;;;;;;;;;;;;;;5054255;28;19959;-84
2023/03/02 15:15:55;;;;;;;;;;;;;;;;;;5071757;28;19920;-84
2023/03/02 15:18:21;;;;;;;;;;;;;;;;;;5072206;28;20353;-84
2023/03/02 15:20:47;;;;;;;;;;;;;;;;;;5055850;28;20058;-84
2023/03/02 15:23:13;;;;;;;;;;;;;;;;;;5072623;28;19999;-83
2023/03/02 15:25:39;;;;;;;;;;;;;;;;;;5056067;28;19917;-83
2023/03/02 15:28:05;;;;;;;;;;;;;;;;;;5074356;28;20274;-82
2023/03/02 15:30:31;;;;;;;;;;;;;;;;;;5068734;28;19963;-82
2023/03/02 15:32:58;;;;;;;;;;;;;;;;;;5066772;28;20007;-82
2023/03/02 15:35:24;;;;;;;;;;;;;;;;;;5051325;28;19919;-83
2023/03/02 15:37:50;;;;;;;;;;;;;;;;;;5070105;28;19913;-82
2023/03/02 15:40:16;;;;;;;;;;;;;;;;;;5071390;28;19925;-82
2023/03/02 15:42:42;;;;;;;;;;;;;;;;;;5069824;28;19913;-81
2023/03/02 15:45:08;;;;;;;;;;;;;;;;;;5070969;28;19923;-83
2023/03/02 15:47:34;;;;;;;;;;;;;;;;;;5070733;28;20010;-83
2023/03/02 15:50:00;;;;;;;;;;;;;;;;;;5071001;28;19995;-82
2023/03/02 15:52:26;;;;;;;;;;;;;;;;;;5075536;28;19923;-83
2023/03/02 15:54:52;;;;;;;;;;;;;;;;;;5091427;28;19920;-83
2023/03/02 15:57:18;;;;;;;;;;;;;;;;;;5090812;28;19952;-82
2023/03/02 15:59:45;;;;;;;;;;;;;;;;;;5090798;28;19916;-84
2023/03/02 16:02:11;;;;;;;;;;;;;;;;;;5091152;28;19916;-82
2023/03/02 16:04:37;;;;;;;;;;;;;;;;;;5091066;28;20284;-82
2023/03/02 16:07:03;;;;;;;;;;;;;;;;;;5089493;28;19916;-82
2023/03/02 16:09:29;;;;;;;;;;;;;;;;;;5089954;28;19923;-82
2023/03/02 16:11:55;;;;;;;;;;;;;;;;;;5090096;28;19998;-83
2023/03/02 16:14:21;;;;;;;;;;;;;;;;;;5090095;28;20293;-83
2023/03/02 16:16:47;;;;;;;;;;;;;;;;;;5055046;28;19908;-83
2023/03/02 16:19:13;;;;;;;;;;;;;;;;;;5071633;28;19916;-83
2023/03/02 16:21:39;;;;;;;;;;;;;;;;;;5090178;28;20414;-83
2023/03/02 16:24:05;;;;;;;;;;;;;;;;;;5090144;28;19912;-83
2023/03/02 16:26:31;;;;;;;;;;;;;;;;;;5075800;28;19919;-83
2023/03/02 16:28:57;;;;;;;;;;;;;;;;;;5093693;28;19919;-84
2023/03/02 16:31:25;;;;;;;;;;;;;;;;;;5094253;28;20003;-83
2023/03/02 16:33:51;;;;;;;;;;;;;;;;;;5094249;28;19916;-83
2023/03/02 16:36:17;;;;;;;;;;;;;;;;;;5094394;28;20258;-81
2023/03/02 16:38:43;;;;;;;;;;;;;;;;;;5094281;28;19912;-82